Canberra International Airport
YSCB : now visible

Airfield :











YOU CAN JOIN US ON...

 
LOGIN :

Register | Disclaimer

   EN    FR    IT 

 









Legend :    VFR   Marginal VFR   IFR   Intensive IFR   Very Intensive IFR
Visi :
Ceiling :
>= 8 km
>= 3000ft
5 to 8 km
1000 to 3000 ft
1500m to 5 km
500 to 1000 ft
800 to 1500m
200 to 500 ft
< 800m
< 200 ft
Symbols :   Thunderstorms  Fog  Heavy snow  Heavy precipitations  Wind > 20 kt






- Airport Elevation : 1886 ft
- IATA code : CBR


YSCB - Canberra International

CURRENT METAR :
  • 011700Z AUTO 09001KT 9999 // NCD 14/14 Q1015 RF00.0/000.0

EXPIRED METARs :
  • 011630Z AUTO 17004KT 120V200 9999 // NCD 15/14 Q1016 RF00.0/000.0
  • 011600Z AUTO 18003KT 9999 // NCD 15/14 Q1016
  • 011530Z AUTO 00000KT 9999 // NCD 16/14 Q1016 RF00.0/000.0
  • 011500Z AUTO 11005KT 9999 // NCD 16/14 Q1017 RF00.0/000.0
  • 011430Z AUTO 16003KT 9999 // SCT018 SCT055 BKN078 17/14 Q1017

TAF AMD TAF YSCB
Valid from the 01 at 12:00 until the 02 at 12:00 UTC


011226Z 0112/0212 06008KT CAVOK
BECMG 0115/0117 06006KT 9999 -RA SCT015 BKN025
FM012100 02008KT 8000 -RA SCT010 BKN020
BECMG 0202/0204 33012KT 9999 -SHRA SCT020 BKN030
FM020700 33008KT 9999 -SHRA BKN015
TEMPO 0115/0121 6000 -RA BKN015
TEMPO 0121/0204 3000 RA BKN010
PROB30 INTER 0204/0210 VRB20G30KT 2000 TSRA BKN010 FEW040CB



MET'MAP, your aeronautical weather chart ! - Copyright ORBIFLY December 2007 - Disclaimer

ORBIFLY MET'MAP TEAM :

Programming & Development : Alexandra Zaïnal
Concept & original design : Baudouin d'Aumeries
Assistance for programming : Marc-Olivier Méhu
Technical & hardware support : Manuel Goepfert

Contact : metmap@orbifly.com




SOURCES & CREDITS :

   NOAA       Earth
Advisory